sensor_id;sensor_type;location;lat;lon;timestamp;pressure;altitude;pressure_sealevel;temperature
15845;BMP180;50807;52.436;13.346;2023-05-07T00:00:06;101721.00;;;14.30
15845;BMP180;50807;52.436;13.346;2023-05-07T00:00:39;101718.00;;;14.30
15845;BMP180;50807;52.436;13.346;2023-05-07T00:01:12;101724.00;;;14.30
15845;BMP180;50807;52.436;13.346;2023-05-07T00:01:43;101720.00;;;14.30
15845;BMP180;50807;52.436;13.346;2023-05-07T00:02:14;101724.00;;;14.30
15845;BMP180;50807;52.436;13.346;2023-05-07T00:02:46;101717.00;;;14.30
15845;BMP180;50807;52.436;13.346;2023-05-07T00:03:17;101721.00;;;14.30
15845;BMP180;50807;52.436;13.346;2023-05-07T00:03:47;101719.00;;;14.30
15845;BMP180;50807;52.436;13.346;2023-05-07T00:04:20;101727.00;;;14.30
15845;BMP180;50807;52.436;13.346;2023-05-07T00:04:51;101728.00;;;14.30
15845;BMP180;50807;52.436;13.346;2023-05-07T00:05:22;101723.00;;;14.30
15845;BMP180;50807;52.436;13.346;2023-05-07T00:05:54;101720.00;;;14.30
15845;BMP180;50807;52.436;13.346;2023-05-07T00:06:24;101723.00;;;14.30
15845;BMP180;50807;52.436;13.346;2023-05-07T00:06:57;101730.00;;;14.30
15845;BMP180;50807;52.436;13.346;2023-05-07T00:07:28;101726.00;;;14.30
15845;BMP180;50807;52.436;13.346;2023-05-07T00:07:59;101723.00;;;14.30
15845;BMP180;50807;52.436;13.346;2023-05-07T00:08:30;101729.00;;;14.30
15845;BMP180;50807;52.436;13.346;2023-05-07T00:09:02;101722.00;;;14.30
15845;BMP180;50807;52.436;13.346;2023-05-07T00:09:34;101723.00;;;14.20
15845;BMP180;50807;52.436;13.346;2023-05-07T00:10:06;101727.00;;;14.20
15845;BMP180;50807;52.436;13.346;2023-05-07T00:10:37;101724.00;;;14.20
15845;BMP180;50807;52.436;13.346;2023-05-07T00:11:09;101730.00;;;14.30
15845;BMP180;50807;52.436;13.346;2023-05-07T00:11:40;101727.00;;;14.20
15845;BMP180;50807;52.436;13.346;2023-05-07T00:12:10;101737.00;;;14.20
15845;BMP180;50807;52.436;13.346;2023-05-07T00:12:41;101722.00;;;14.20
15845;BMP180;50807;52.436;13.346;2023-05-07T00:13:13;101725.00;;;14.30
15845;BMP180;50807;52.436;13.346;2023-05-07T00:13:44;101727.00;;;14.30
15845;BMP180;50807;52.436;13.346;2023-05-07T00:14:14;101725.00;;;14.20
15845;BMP180;50807;52.436;13.346;2023-05-07T00:14:46;101734.00;;;14.20
15845;BMP180;50807;52.436;13.346;2023-05-07T00:15:17;101721.00;;;14.20
15845;BMP180;50807;52.436;13.346;2023-05-07T00:15:48;101716.00;;;14.20
15845;BMP180;50807;52.436;13.346;2023-05-07T00:16:19;101724.00;;;14.20
15845;BMP180;50807;52.436;13.346;2023-05-07T00:16:51;101726.00;;;14.20
15845;BMP180;50807;52.436;13.346;2023-05-07T00:17:22;101728.00;;;14.20
15845;BMP180;50807;52.436;13.346;2023-05-07T00:17:53;101726.00;;;14.20
15845;BMP180;50807;52.436;13.346;2023-05-07T00:18:25;101726.00;;;14.20
15845;BMP180;50807;52.436;13.346;2023-05-07T00:18:56;101723.00;;;14.20
15845;BMP180;50807;52.436;13.346;2023-05-07T00:19:28;101719.00;;;14.20
15845;BMP180;50807;52.436;13.346;2023-05-07T00:19:59;101721.00;;;14.20
15845;BMP180;50807;52.436;13.346;2023-05-07T00:20:30;101711.00;;;14.20
15845;BMP180;50807;52.436;13.346;2023-05-07T00:21:01;101726.00;;;14.20
15845;BMP180;50807;52.436;13.346;2023-05-07T00:21:33;101722.00;;;14.20
15845;BMP180;50807;52.436;13.346;2023-05-07T00:22:03;101715.00;;;14.20
15845;BMP180;50807;52.436;13.346;2023-05-07T00:22:34;101729.00;;;14.20
15845;BMP180;50807;52.436;13.346;2023-05-07T00:23:06;101727.00;;;14.20
15845;BMP180;50807;52.436;13.346;2023-05-07T00:23:37;101728.00;;;14.20
15845;BMP180;50807;52.436;13.346;2023-05-07T00:24:07;101726.00;;;14.30
15845;BMP180;50807;52.436;13.346;2023-05-07T00:24:39;101719.00;;;14.20
15845;BMP180;50807;52.436;13.346;2023-05-07T00:25:10;101728.00;;;14.20
15845;BMP180;50807;52.436;13.346;2023-05-07T00:25:41;101722.00;;;14.20
15845;BMP180;50807;52.436;13.346;2023-05-07T00:26:12;101722.00;;;14.20
15845;BMP180;50807;52.436;13.346;2023-05-07T00:26:43;101726.00;;;14.20
15845;BMP180;50807;52.436;13.346;2023-05-07T00:27:14;101728.00;;;14.20
15845;BMP180;50807;52.436;13.346;2023-05-07T00:27:45;101721.00;;;14.30
15845;BMP180;50807;52.436;13.346;2023-05-07T00:28:16;101724.00;;;14.20
15845;BMP180;50807;52.436;13.346;2023-05-07T00:28:47;101724.00;;;14.30
15845;BMP180;50807;52.436;13.346;2023-05-07T00:29:18;101722.00;;;14.20
15845;BMP180;50807;52.436;13.346;2023-05-07T00:29:49;101717.00;;;14.20
15845;BMP180;50807;52.436;13.346;2023-05-07T00:30:20;101722.00;;;14.20
15845;BMP180;50807;52.436;13.346;2023-05-07T00:30:52;101729.00;;;14.30
15845;BMP180;50807;52.436;13.346;2023-05-07T00:31:23;101723.00;;;14.30
15845;BMP180;50807;52.436;13.346;2023-05-07T00:31:54;101719.00;;;14.20
15845;BMP180;50807;52.436;13.346;2023-05-07T00:32:25;101718.00;;;14.30
15845;BMP180;50807;52.436;13.346;2023-05-07T00:32:56;101720.00;;;14.30
15845;BMP180;50807;52.436;13.346;2023-05-07T00:33:27;101717.00;;;14.30
15845;BMP180;50807;52.436;13.346;2023-05-07T00:33:58;101729.00;;;14.30
15845;BMP180;50807;52.436;13.346;2023-05-07T00:34:30;101723.00;;;14.30
15845;BMP180;50807;52.436;13.346;2023-05-07T00:35:01;101726.00;;;14.30
15845;BMP180;50807;52.436;13.346;2023-05-07T00:35:33;101721.00;;;14.20
15845;BMP180;50807;52.436;13.346;2023-05-07T00:36:04;101723.00;;;14.20
15845;BMP180;50807;52.436;13.346;2023-05-07T00:36:35;101720.00;;;14.30
15845;BMP180;50807;52.436;13.346;2023-05-07T00:37:07;101720.00;;;14.20
15845;BMP180;50807;52.436;13.346;2023-05-07T00:37:38;101721.00;;;14.20
15845;BMP180;50807;52.436;13.346;2023-05-07T00:38:08;101726.00;;;14.30
15845;BMP180;50807;52.436;13.346;2023-05-07T00:38:39;101722.00;;;14.20
15845;BMP180;50807;52.436;13.346;2023-05-07T00:39:11;101710.00;;;14.30
15845;BMP180;50807;52.436;13.346;2023-05-07T00:39:41;101725.00;;;14.30
15845;BMP180;50807;52.436;13.346;2023-05-07T00:40:12;101716.00;;;14.20
15845;BMP180;50807;52.436;13.346;2023-05-07T00:40:44;101723.00;;;14.20
15845;BMP180;50807;52.436;13.346;2023-05-07T00:41:16;101706.00;;;14.20
15845;BMP180;50807;52.436;13.346;2023-05-07T00:41:46;101718.00;;;14.20
15845;BMP180;50807;52.436;13.346;2023-05-07T00:42:18;101721.00;;;14.20
15845;BMP180;50807;52.436;13.346;2023-05-07T00:42:49;101724.00;;;14.20
15845;BMP180;50807;52.436;13.346;2023-05-07T00:43:20;101722.00;;;14.30
15845;BMP180;50807;52.436;13.346;2023-05-07T00:43:51;101721.00;;;14.30
15845;BMP180;50807;52.436;13.346;2023-05-07T00:44:22;101721.00;;;14.20
15845;BMP180;50807;52.436;13.346;2023-05-07T00:44:54;101729.00;;;14.30
15845;BMP180;50807;52.436;13.346;2023-05-07T00:45:27;101715.00;;;14.20
15845;BMP180;50807;52.436;13.346;2023-05-07T00:45:59;101722.00;;;14.30
15845;BMP180;50807;52.436;13.346;2023-05-07T00:46:32;101728.00;;;14.20
15845;BMP180;50807;52.436;13.346;2023-05-07T00:47:05;101720.00;;;14.20
15845;BMP180;50807;52.436;13.346;2023-05-07T00:47:37;101729.00;;;14.20
15845;BMP180;50807;52.436;13.346;2023-05-07T00:48:08;101726.00;;;14.20
15845;BMP180;50807;52.436;13.346;2023-05-07T00:48:39;101723.00;;;14.20
15845;BMP180;50807;52.436;13.346;2023-05-07T00:49:11;101719.00;;;14.20
15845;BMP180;50807;52.436;13.346;2023-05-07T00:49:45;101718.00;;;14.20
15845;BMP180;50807;52.436;13.346;2023-05-07T00:50:16;101723.00;;;14.20
15845;BMP180;50807;52.436;13.346;2023-05-07T00:50:47;101716.00;;;14.20
15845;BMP180;50807;52.436;13.346;2023-05-07T00:51:20;101716.00;;;14.20
15845;BMP180;50807;52.436;13.346;2023-05-07T00:51:51;101720.00;;;14.20
15845;BMP180;50807;52.436;13.346;2023-05-07T00:52:25;101712.00;;;14.10
15845;BMP180;50807;52.436;13.346;2023-05-07T00:52:57;101723.00;;;14.20
15845;BMP180;50807;52.436;13.346;2023-05-07T00:53:29;101722.00;;;14.20
15845;BMP180;50807;52.436;13.346;2023-05-07T00:54:02;101719.00;;;14.20
15845;BMP180;50807;52.436;13.346;2023-05-07T00:54:35;101721.00;;;14.20
15845;BMP180;50807;52.436;13.346;2023-05-07T00:55:07;101717.00;;;14.20
15845;BMP180;50807;52.436;13.346;2023-05-07T00:55:38;101712.00;;;14.20
15845;BMP180;50807;52.436;13.346;2023-05-07T00:56:11;101716.00;;;14.20
15845;BMP180;50807;52.436;13.346;2023-05-07T00:56:42;101710.00;;;14.20
15845;BMP180;50807;52.436;13.346;2023-05-07T00:57:13;101714.00;;;14.20
15845;BMP180;50807;52.436;13.346;2023-05-07T00:57:46;101712.00;;;14.20
15845;BMP180;50807;52.436;13.346;2023-05-07T00:58:17;101715.00;;;14.20
15845;BMP180;50807;52.436;13.346;2023-05-07T00:58:48;101712.00;;;14.20
15845;BMP180;50807;52.436;13.346;2023-05-07T00:59:19;101711.00;;;14.20
15845;BMP180;50807;52.436;13.346;2023-05-07T00:59:51;101719.00;;;14.20
15845;BMP180;50807;52.436;13.346;2023-05-07T01:00:22;101717.00;;;14.20
15845;BMP180;50807;52.436;13.346;2023-05-07T01:00:55;101713.00;;;14.20
15845;BMP180;50807;52.436;13.346;2023-05-07T01:01:25;101712.00;;;14.20
15845;BMP180;50807;52.436;13.346;2023-05-07T01:01:57;101708.00;;;14.20
15845;BMP180;50807;52.436;13.346;2023-05-07T01:02:28;101718.00;;;14.20
15845;BMP180;50807;52.436;13.346;2023-05-07T01:02:59;101713.00;;;14.20
15845;BMP180;50807;52.436;13.346;2023-05-07T01:03:30;101719.00;;;14.20
15845;BMP180;50807;52.436;13.346;2023-05-07T01:04:02;101713.00;;;14.10
15845;BMP180;50807;52.436;13.346;2023-05-07T01:04:33;101716.00;;;14.10
15845;BMP180;50807;52.436;13.346;2023-05-07T01:05:08;101714.00;;;14.10
15845;BMP180;50807;52.436;13.346;2023-05-07T01:05:40;101708.00;;;14.10
15845;BMP180;50807;52.436;13.346;2023-05-07T01:06:13;101718.00;;;14.10
15845;BMP180;50807;52.436;13.346;2023-05-07T01:06:47;101714.00;;;14.10
15845;BMP180;50807;52.436;13.346;2023-05-07T01:07:18;101712.00;;;14.10
15845;BMP180;50807;52.436;13.346;2023-05-07T01:07:52;101719.00;;;14.00
15845;BMP180;50807;52.436;13.346;2023-05-07T01:08:25;101713.00;;;14.00
15845;BMP180;50807;52.436;13.346;2023-05-07T01:08:59;101713.00;;;14.00
15845;BMP180;50807;52.436;13.346;2023-05-07T01:09:30;101707.00;;;14.00
15845;BMP180;50807;52.436;13.346;2023-05-07T01:10:03;101704.00;;;14.00
15845;BMP180;50807;52.436;13.346;2023-05-07T01:10:35;101713.00;;;14.00
15845;BMP180;50807;52.436;13.346;2023-05-07T01:11:07;101711.00;;;14.00
15845;BMP180;50807;52.436;13.346;2023-05-07T01:11:39;101707.00;;;14.00
15845;BMP180;50807;52.436;13.346;2023-05-07T01:12:10;101712.00;;;14.00
15845;BMP180;50807;52.436;13.346;2023-05-07T01:12:44;101710.00;;;14.00
15845;BMP180;50807;52.436;13.346;2023-05-07T01:13:16;101710.00;;;14.00
15845;BMP180;50807;52.436;13.346;2023-05-07T01:13:47;101713.00;;;14.00
15845;BMP180;50807;52.436;13.346;2023-05-07T01:14:21;101724.00;;;14.00
15845;BMP180;50807;52.436;13.346;2023-05-07T01:14:52;101722.00;;;14.00
15845;BMP180;50807;52.436;13.346;2023-05-07T01:15:23;101725.00;;;14.00
15845;BMP180;50807;52.436;13.346;2023-05-07T01:15:54;101719.00;;;14.00
15845;BMP180;50807;52.436;13.346;2023-05-07T01:16:25;101720.00;;;14.00
15845;BMP180;50807;52.436;13.346;2023-05-07T01:16:58;101720.00;;;14.00
15845;BMP180;50807;52.436;13.346;2023-05-07T01:17:29;101722.00;;;14.00
15845;BMP180;50807;52.436;13.346;2023-05-07T01:18:00;101731.00;;;14.00
15845;BMP180;50807;52.436;13.346;2023-05-07T01:18:32;101715.00;;;14.00
15845;BMP180;50807;52.436;13.346;2023-05-07T01:19:03;101718.00;;;14.00
15845;BMP180;50807;52.436;13.346;2023-05-07T01:19:34;101724.00;;;14.00
15845;BMP180;50807;52.436;13.346;2023-05-07T01:20:09;101722.00;;;14.00
15845;BMP180;50807;52.436;13.346;2023-05-07T01:20:41;101718.00;;;14.00
15845;BMP180;50807;52.436;13.346;2023-05-07T01:21:14;101722.00;;;14.00
15845;BMP180;50807;52.436;13.346;2023-05-07T01:21:48;101720.00;;;14.00
15845;BMP180;50807;52.436;13.346;2023-05-07T01:22:29;101712.00;;;13.90
15845;BMP180;50807;52.436;13.346;2023-05-07T01:23:02;101716.00;;;14.00
15845;BMP180;50807;52.436;13.346;2023-05-07T01:23:35;101715.00;;;14.00
15845;BMP180;50807;52.436;13.346;2023-05-07T01:24:06;101719.00;;;14.00
15845;BMP180;50807;52.436;13.346;2023-05-07T01:24:38;101716.00;;;14.00
15845;BMP180;50807;52.436;13.346;2023-05-07T01:25:08;101716.00;;;14.00
15845;BMP180;50807;52.436;13.346;2023-05-07T01:25:40;101718.00;;;14.00
15845;BMP180;50807;52.436;13.346;2023-05-07T01:26:11;101722.00;;;14.00
15845;BMP180;50807;52.436;13.346;2023-05-07T01:26:42;101719.00;;;14.00
15845;BMP180;50807;52.436;13.346;2023-05-07T01:27:14;101719.00;;;14.10
15845;BMP180;50807;52.436;13.346;2023-05-07T01:27:45;101720.00;;;14.10
15845;BMP180;50807;52.436;13.346;2023-05-07T01:28:16;101715.00;;;14.00
15845;BMP180;50807;52.436;13.346;2023-05-07T01:28:48;101722.00;;;14.10
15845;BMP180;50807;52.436;13.346;2023-05-07T01:29:18;101716.00;;;14.10
15845;BMP180;50807;52.436;13.346;2023-05-07T01:29:49;101718.00;;;14.10
15845;BMP180;50807;52.436;13.346;2023-05-07T01:30:22;101717.00;;;14.10
15845;BMP180;50807;52.436;13.346;2023-05-07T01:31:00;101697.00;;;14.00
15845;BMP180;50807;52.436;13.346;2023-05-07T01:31:34;101712.00;;;14.10
15845;BMP180;50807;52.436;13.346;2023-05-07T01:32:07;101705.00;;;14.10
15845;BMP180;50807;52.436;13.346;2023-05-07T01:32:43;101709.00;;;14.00
15845;BMP180;50807;52.436;13.346;2023-05-07T01:33:20;101709.00;;;14.00
15845;BMP180;50807;52.436;13.346;2023-05-07T01:33:53;101718.00;;;14.10
15845;BMP180;50807;52.436;13.346;2023-05-07T01:34:27;101710.00;;;14.10
15845;BMP180;50807;52.436;13.346;2023-05-07T01:34:59;101714.00;;;14.10
15845;BMP180;50807;52.436;13.346;2023-05-07T01:35:39;101719.00;;;14.10
15845;BMP180;50807;52.436;13.346;2023-05-07T01:36:12;101717.00;;;14.10
15845;BMP180;50807;52.436;13.346;2023-05-07T01:36:44;101709.00;;;14.10
15845;BMP180;50807;52.436;13.346;2023-05-07T01:37:16;101723.00;;;14.10
15845;BMP180;50807;52.436;13.346;2023-05-07T01:37:49;101718.00;;;14.10
15845;BMP180;50807;52.436;13.346;2023-05-07T01:38:22;101721.00;;;14.20
15845;BMP180;50807;52.436;13.346;2023-05-07T01:38:54;101721.00;;;14.20
15845;BMP180;50807;52.436;13.346;2023-05-07T01:39:27;101716.00;;;14.20
15845;BMP180;50807;52.436;13.346;2023-05-07T01:40:01;101717.00;;;14.20
15845;BMP180;50807;52.436;13.346;2023-05-07T01:40:32;101719.00;;;14.20
15845;BMP180;50807;52.436;13.346;2023-05-07T01:41:04;101712.00;;;14.20
15845;BMP180;50807;52.436;13.346;2023-05-07T01:41:37;101712.00;;;14.20
15845;BMP180;50807;52.436;13.346;2023-05-07T01:42:07;101715.00;;;14.20
15845;BMP180;50807;52.436;13.346;2023-05-07T01:42:39;101713.00;;;14.20
15845;BMP180;50807;52.436;13.346;2023-05-07T01:43:12;101719.00;;;14.20
15845;BMP180;50807;52.436;13.346;2023-05-07T01:43:43;101717.00;;;14.20
15845;BMP180;50807;52.436;13.346;2023-05-07T01:44:15;101709.00;;;14.20
15845;BMP180;50807;52.436;13.346;2023-05-07T01:44:48;101717.00;;;14.20
15845;BMP180;50807;52.436;13.346;2023-05-07T01:45:18;101711.00;;;14.30
15845;BMP180;50807;52.436;13.346;2023-05-07T01:45:50;101717.00;;;14.30
15845;BMP180;50807;52.436;13.346;2023-05-07T01:46:24;101719.00;;;14.20
15845;BMP180;50807;52.436;13.346;2023-05-07T01:46:57;101716.00;;;14.20
15845;BMP180;50807;52.436;13.346;2023-05-07T01:47:29;101720.00;;;14.30
15845;BMP180;50807;52.436;13.346;2023-05-07T01:48:03;101720.00;;;14.30
15845;BMP180;50807;52.436;13.346;2023-05-07T01:48:34;101722.00;;;14.30
15845;BMP180;50807;52.436;13.346;2023-05-07T01:49:05;101724.00;;;14.20
15845;BMP180;50807;52.436;13.346;2023-05-07T01:49:37;101721.00;;;14.30
15845;BMP180;50807;52.436;13.346;2023-05-07T01:50:09;101717.00;;;14.30
15845;BMP180;50807;52.436;13.346;2023-05-07T01:50:41;101723.00;;;14.30
15845;BMP180;50807;52.436;13.346;2023-05-07T01:51:13;101725.00;;;14.30
15845;BMP180;50807;52.436;13.346;2023-05-07T01:51:44;101719.00;;;14.30
15845;BMP180;50807;52.436;13.346;2023-05-07T01:52:15;101726.00;;;14.30
15845;BMP180;50807;52.436;13.346;2023-05-07T01:52:50;101721.00;;;14.20
15845;BMP180;50807;52.436;13.346;2023-05-07T01:53:21;101720.00;;;14.30
15845;BMP180;50807;52.436;13.346;2023-05-07T01:53:52;101726.00;;;14.30
15845;BMP180;50807;52.436;13.346;2023-05-07T01:54:26;101717.00;;;14.30
15845;BMP180;50807;52.436;13.346;2023-05-07T01:54:58;101723.00;;;14.30
15845;BMP180;50807;52.436;13.346;2023-05-07T01:55:28;101723.00;;;14.30
15845;BMP180;50807;52.436;13.346;2023-05-07T01:56:00;101722.00;;;14.30
15845;BMP180;50807;52.436;13.346;2023-05-07T01:56:31;101726.00;;;14.30
15845;BMP180;50807;52.436;13.346;2023-05-07T01:57:02;101722.00;;;14.30
15845;BMP180;50807;52.436;13.346;2023-05-07T01:57:33;101716.00;;;14.30
15845;BMP180;50807;52.436;13.346;2023-05-07T01:58:04;101725.00;;;14.30
15845;BMP180;50807;52.436;13.346;2023-05-07T01:58:35;101724.00;;;14.30
15845;BMP180;50807;52.436;13.346;2023-05-07T01:59:07;101724.00;;;14.30
15845;BMP180;50807;52.436;13.346;2023-05-07T01:59:37;101725.00;;;14.30
15845;BMP180;50807;52.436;13.346;2023-05-07T02:00:09;101727.00;;;14.30
15845;BMP180;50807;52.436;13.346;2023-05-07T02:00:40;101723.00;;;14.30
15845;BMP180;50807;52.436;13.346;2023-05-07T02:01:13;101728.00;;;14.30
15845;BMP180;50807;52.436;13.346;2023-05-07T02:01:43;101734.00;;;14.30
15845;BMP180;50807;52.436;13.346;2023-05-07T02:02:14;101732.00;;;14.30
15845;BMP180;50807;52.436;13.346;2023-05-07T02:02:46;101728.00;;;14.30
15845;BMP180;50807;52.436;13.346;2023-05-07T02:03:16;101729.00;;;14.30
15845;BMP180;50807;52.436;13.346;2023-05-07T02:03:47;101725.00;;;14.30
15845;BMP180;50807;52.436;13.346;2023-05-07T02:04:18;101727.00;;;14.30
15845;BMP180;50807;52.436;13.346;2023-05-07T02:04:50;101727.00;;;14.30
15845;BMP180;50807;52.436;13.346;2023-05-07T02:05:21;101735.00;;;14.20
15845;BMP180;50807;52.436;13.346;2023-05-07T02:05:52;101730.00;;;14.30
15845;BMP180;50807;52.436;13.346;2023-05-07T02:06:22;101731.00;;;14.20
15845;BMP180;50807;52.436;13.346;2023-05-07T02:06:54;101731.00;;;14.30
15845;BMP180;50807;52.436;13.346;2023-05-07T02:07:26;101734.00;;;14.20
15845;BMP180;50807;52.436;13.346;2023-05-07T02:07:58;101731.00;;;14.20
15845;BMP180;50807;52.436;13.346;2023-05-07T02:08:29;101736.00;;;14.20
15845;BMP180;50807;52.436;13.346;2023-05-07T02:09:01;101733.00;;;14.20
15845;BMP180;50807;52.436;13.346;2023-05-07T02:09:32;101735.00;;;14.20
15845;BMP180;50807;52.436;13.346;2023-05-07T02:10:05;101735.00;;;14.20
15845;BMP180;50807;52.436;13.346;2023-05-07T02:10:36;101733.00;;;14.20
15845;BMP180;50807;52.436;13.346;2023-05-07T02:11:07;101736.00;;;14.20
15845;BMP180;50807;52.436;13.346;2023-05-07T02:11:39;101732.00;;;14.20
15845;BMP180;50807;52.436;13.346;2023-05-07T02:12:10;101731.00;;;14.20
15845;BMP180;50807;52.436;13.346;2023-05-07T02:12:40;101731.00;;;14.20
15845;BMP180;50807;52.436;13.346;2023-05-07T02:13:13;101726.00;;;14.20
15845;BMP180;50807;52.436;13.346;2023-05-07T02:13:43;101739.00;;;14.20
15845;BMP180;50807;52.436;13.346;2023-05-07T02:14:15;101737.00;;;14.20
15845;BMP180;50807;52.436;13.346;2023-05-07T02:14:46;101734.00;;;14.20
15845;BMP180;50807;52.436;13.346;2023-05-07T02:15:17;101738.00;;;14.20
15845;BMP180;50807;52.436;13.346;2023-05-07T02:15:48;101739.00;;;14.20
15845;BMP180;50807;52.436;13.346;2023-05-07T02:16:21;101737.00;;;14.20
15845;BMP180;50807;52.436;13.346;2023-05-07T02:16:52;101739.00;;;14.20
15845;BMP180;50807;52.436;13.346;2023-05-07T02:17:23;101732.00;;;14.20
15845;BMP180;50807;52.436;13.346;2023-05-07T02:18:00;101749.00;;;14.10
15845;BMP180;50807;52.436;13.346;2023-05-07T02:18:31;101746.00;;;14.10
15845;BMP180;50807;52.436;13.346;2023-05-07T02:19:02;101741.00;;;14.10
15845;BMP180;50807;52.436;13.346;2023-05-07T02:19:33;101741.00;;;14.10
15845;BMP180;50807;52.436;13.346;2023-05-07T02:20:07;101749.00;;;14.10
15845;BMP180;50807;52.436;13.346;2023-05-07T02:20:43;101741.00;;;14.00
15845;BMP180;50807;52.436;13.346;2023-05-07T02:21:14;101742.00;;;14.00
15845;BMP180;50807;52.436;13.346;2023-05-07T02:21:46;101734.00;;;14.10
15845;BMP180;50807;52.436;13.346;2023-05-07T02:22:17;101737.00;;;14.00
15845;BMP180;50807;52.436;13.346;2023-05-07T02:22:48;101735.00;;;14.00
15845;BMP180;50807;52.436;13.346;2023-05-07T02:23:20;101742.00;;;14.00
15845;BMP180;50807;52.436;13.346;2023-05-07T02:23:52;101729.00;;;14.00
15845;BMP180;50807;52.436;13.346;2023-05-07T02:24:23;101732.00;;;14.00
15845;BMP180;50807;52.436;13.346;2023-05-07T02:24:54;101737.00;;;14.00
15845;BMP180;50807;52.436;13.346;2023-05-07T02:25:25;101733.00;;;14.00
15845;BMP180;50807;52.436;13.346;2023-05-07T02:26:32;101744.00;;;14.00
15845;BMP180;50807;52.436;13.346;2023-05-07T02:27:04;101733.00;;;14.00
15845;BMP180;50807;52.436;13.346;2023-05-07T02:27:35;101734.00;;;14.00
15845;BMP180;50807;52.436;13.346;2023-05-07T02:28:06;101740.00;;;14.00
15845;BMP180;50807;52.436;13.346;2023-05-07T02:28:37;101733.00;;;14.00
15845;BMP180;50807;52.436;13.346;2023-05-07T02:29:08;101748.00;;;14.00
15845;BMP180;50807;52.436;13.346;2023-05-07T02:29:39;101730.00;;;14.00
15845;BMP180;50807;52.436;13.346;2023-05-07T02:30:11;101739.00;;;14.10
15845;BMP180;50807;52.436;13.346;2023-05-07T02:30:42;101739.00;;;14.10
15845;BMP180;50807;52.436;13.346;2023-05-07T02:31:13;101740.00;;;14.10
15845;BMP180;50807;52.436;13.346;2023-05-07T02:31:44;101733.00;;;14.00
15845;BMP180;50807;52.436;13.346;2023-05-07T02:32:15;101737.00;;;14.00
15845;BMP180;50807;52.436;13.346;2023-05-07T02:32:46;101736.00;;;14.00
15845;BMP180;50807;52.436;13.346;2023-05-07T02:33:17;101748.00;;;14.00
15845;BMP180;50807;52.436;13.346;2023-05-07T02:33:48;101741.00;;;14.00
15845;BMP180;50807;52.436;13.346;2023-05-07T02:34:20;101744.00;;;14.00
15845;BMP180;50807;52.436;13.346;2023-05-07T02:34:51;101738.00;;;14.00
15845;BMP180;50807;52.436;13.346;2023-05-07T02:35:22;101740.00;;;14.00
15845;BMP180;50807;52.436;13.346;2023-05-07T02:35:52;101735.00;;;14.00
15845;BMP180;50807;52.436;13.346;2023-05-07T02:36:26;101750.00;;;14.00
15845;BMP180;50807;52.436;13.346;2023-05-07T02:36:57;101747.00;;;14.00
15845;BMP180;50807;52.436;13.346;2023-05-07T02:37:27;101742.00;;;14.00
15845;BMP180;50807;52.436;13.346;2023-05-07T02:37:58;101739.00;;;14.00
15845;BMP180;50807;52.436;13.346;2023-05-07T02:38:31;101740.00;;;13.90
15845;BMP180;50807;52.436;13.346;2023-05-07T02:39:03;101740.00;;;13.90
15845;BMP180;50807;52.436;13.346;2023-05-07T02:39:33;101740.00;;;13.90
15845;BMP180;50807;52.436;13.346;2023-05-07T02:40:07;101747.00;;;13.90
15845;BMP180;50807;52.436;13.346;2023-05-07T02:40:38;101751.00;;;13.90
15845;BMP180;50807;52.436;13.346;2023-05-07T02:41:09;101741.00;;;13.90
15845;BMP180;50807;52.436;13.346;2023-05-07T02:41:41;101750.00;;;13.90
15845;BMP180;50807;52.436;13.346;2023-05-07T02:42:12;101750.00;;;13.90
15845;BMP180;50807;52.436;13.346;2023-05-07T02:42:43;101742.00;;;13.90
15845;BMP180;50807;52.436;13.346;2023-05-07T02:43:14;101741.00;;;14.00
15845;BMP180;50807;52.436;13.346;2023-05-07T02:43:45;101751.00;;;14.00
15845;BMP180;50807;52.436;13.346;2023-05-07T02:44:16;101745.00;;;13.90
15845;BMP180;50807;52.436;13.346;2023-05-07T02:44:47;101750.00;;;14.00
15845;BMP180;50807;52.436;13.346;2023-05-07T02:45:18;101740.00;;;14.00
15845;BMP180;50807;52.436;13.346;2023-05-07T02:46:00;101747.00;;;13.90
15845;BMP180;50807;52.436;13.346;2023-05-07T02:46:31;101748.00;;;13.90
15845;BMP180;50807;52.436;13.346;2023-05-07T02:47:04;101747.00;;;13.90
15845;BMP180;50807;52.436;13.346;2023-05-07T02:47:35;101748.00;;;13.90
15845;BMP180;50807;52.436;13.346;2023-05-07T02:48:06;101750.00;;;13.90
15845;BMP180;50807;52.436;13.346;2023-05-07T02:48:38;101750.00;;;14.00
15845;BMP180;50807;52.436;13.346;2023-05-07T02:49:09;101746.00;;;13.90
15845;BMP180;50807;52.436;13.346;2023-05-07T02:49:39;101743.00;;;13.90
15845;BMP180;50807;52.436;13.346;2023-05-07T02:50:11;101736.00;;;13.90
15845;BMP180;50807;52.436;13.346;2023-05-07T02:50:42;101736.00;;;13.90
15845;BMP180;50807;52.436;13.346;2023-05-07T02:51:14;101740.00;;;13.90
15845;BMP180;50807;52.436;13.346;2023-05-07T02:51:46;101741.00;;;13.90
15845;BMP180;50807;52.436;13.346;2023-05-07T02:52:16;101743.00;;;13.90
15845;BMP180;50807;52.436;13.346;2023-05-07T02:52:47;101745.00;;;13.90
15845;BMP180;50807;52.436;13.346;2023-05-07T02:53:19;101743.00;;;14.00
15845;BMP180;50807;52.436;13.346;2023-05-07T02:53:51;101751.00;;;13.90
15845;BMP180;50807;52.436;13.346;2023-05-07T02:54:22;101755.00;;;14.00
15845;BMP180;50807;52.436;13.346;2023-05-07T02:54:53;101757.00;;;14.00
15845;BMP180;50807;52.436;13.346;2023-05-07T02:55:24;101748.00;;;14.00
15845;BMP180;50807;52.436;13.346;2023-05-07T02:55:57;101743.00;;;13.90
15845;BMP180;50807;52.436;13.346;2023-05-07T02:56:28;101745.00;;;13.90
15845;BMP180;50807;52.436;13.346;2023-05-07T02:57:00;101745.00;;;13.90
15845;BMP180;50807;52.436;13.346;2023-05-07T02:57:32;101756.00;;;13.90
15845;BMP180;50807;52.436;13.346;2023-05-07T02:58:03;101755.00;;;13.90